Time;durP1;ratioP1;P1;durP2;ratioP2;P2;SDS_P1;SDS_P2;PMS_P1;PMS_P2;Temp;Humidity;BMP_temperature;BMP_pressure;BME280_temperature;BME280_humidity;BME280_pressure;Samples;Min_cycle;Max_cycle;Signal;HPM_P1;HPM_P2
2021/12/31 00:00:26;;;;;;;1.87;1.60;;;;;;;10.62;100.00;100726.03;5003063;28;20227;-72
2021/12/31 00:02:53;;;;;;;2.20;2.00;;;;;;;10.60;100.00;100730.44;5004273;28;20199;-72
2021/12/31 00:05:19;;;;;;;2.90;2.07;;;;;;;10.64;100.00;100719.06;5002331;28;20571;-72
2021/12/31 00:07:47;;;;;;;3.30;1.63;;;;;;;10.61;100.00;100721.75;5004335;28;20214;-72
2021/12/31 00:10:14;;;;;;;4.30;2.07;;;;;;;10.60;100.00;100728.69;5001696;28;20290;-72
2021/12/31 00:12:43;;;;;;;3.50;1.90;;;;;;;10.64;100.00;100726.88;5006351;28;20233;-72
2021/12/31 00:15:10;;;;;;;2.57;2.10;;;;;;;10.59;100.00;100731.34;5000525;28;20227;-72
2021/12/31 00:17:38;;;;;;;3.10;1.70;;;;;;;10.60;100.00;100718.25;5004213;28;20211;-72
2021/12/31 00:20:09;;;;;;;2.37;1.90;;;;;;;10.67;100.00;100726.78;5003906;28;20215;-72
2021/12/31 00:22:58;;;;;;;2.00;1.77;;;;;;;10.70;100.00;100737.16;5001927;28;20244;-72
2021/12/31 00:25:26;;;;;;;2.10;1.90;;;;;;;10.73;100.00;100736.19;5002988;28;20685;-72
2021/12/31 00:27:52;;;;;;;2.80;1.87;;;;;;;10.71;100.00;100735.38;5009734;28;20199;-72
2021/12/31 00:30:20;;;;;;;2.00;1.80;;;;;;;10.67;100.00;100732.00;5001147;28;20203;-72
2021/12/31 00:32:46;;;;;;;2.10;1.80;;;;;;;10.67;100.00;100738.97;5001996;28;20255;-72
2021/12/31 00:35:13;;;;;;;1.90;1.70;;;;;;;10.73;100.00;100734.47;5002470;28;20214;-72
2021/12/31 00:37:41;;;;;;;2.30;1.80;;;;;;;10.76;100.00;100736.13;5001280;28;20218;-72
2021/12/31 00:40:11;;;;;;;2.90;2.10;;;;;;;10.77;100.00;100746.53;5001713;28;20227;-72
2021/12/31 00:42:39;;;;;;;3.10;1.67;;;;;;;10.74;100.00;100744.00;5001453;28;20586;-72
2021/12/31 00:45:08;;;;;;;1.83;1.60;;;;;;;10.77;100.00;100749.13;5006612;28;20220;-72
2021/12/31 00:47:34;;;;;;;3.53;2.10;;;;;;;10.78;100.00;100745.66;5001825;28;20211;-72
2021/12/31 00:50:01;;;;;;;3.17;1.90;;;;;;;10.80;100.00;100748.22;5006578;28;20214;-72
2021/12/31 00:52:27;;;;;;;2.67;2.07;;;;;;;10.82;100.00;100753.38;5004385;28;20227;-72
2021/12/31 00:54:54;;;;;;;2.00;1.80;;;;;;;10.86;100.00;100762.84;5004109;28;20206;-72
2021/12/31 00:57:21;;;;;;;3.60;2.10;;;;;;;10.85;100.00;100751.53;4999752;28;20219;-72
2021/12/31 00:59:49;;;;;;;2.97;1.97;;;;;;;10.85;100.00;100748.94;5001263;28;20199;-72
2021/12/31 01:02:16;;;;;;;5.10;2.00;;;;;;;10.88;100.00;100753.22;4999998;28;20313;-72
2021/12/31 01:04:43;;;;;;;5.20;2.00;;;;;;;10.86;100.00;100760.25;5003540;28;20302;-72
2021/12/31 01:07:10;;;;;;;2.53;2.00;;;;;;;10.80;100.00;100759.50;5001530;28;20262;-72
2021/12/31 01:09:36;;;;;;;2.10;1.80;;;;;;;10.90;100.00;100754.03;5005632;28;20210;-72
2021/12/31 01:12:06;;;;;;;2.27;1.83;;;;;;;10.86;100.00;100760.25;5002459;28;20574;-72
2021/12/31 01:14:36;;;;;;;3.40;1.90;;;;;;;10.84;100.00;100762.88;5005704;28;20282;-72
2021/12/31 01:17:07;;;;;;;2.80;1.70;;;;;;;10.81;100.00;100762.97;5001814;28;20568;-72
2021/12/31 01:19:45;;;;;;;3.40;2.00;;;;;;;10.82;100.00;100762.06;5004152;28;20227;-72
2021/12/31 01:22:12;;;;;;;2.40;1.90;;;;;;;10.79;100.00;100754.31;4999649;28;20224;-72
2021/12/31 01:24:39;;;;;;;1.80;1.70;;;;;;;10.82;100.00;100756.84;5004819;28;20584;-72
2021/12/31 01:27:05;;;;;;;2.57;1.80;;;;;;;10.78;100.00;100753.47;5001494;28;20215;-72
2021/12/31 01:29:32;;;;;;;3.63;1.60;;;;;;;10.74;100.00;100753.56;5000737;28;20207;-72
2021/12/31 01:31:58;;;;;;;3.43;1.70;;;;;;;10.78;100.00;100757.81;5001894;28;20227;-72
2021/12/31 01:34:26;;;;;;;2.10;1.70;;;;;;;10.79;100.00;100756.94;5002662;28;20200;-72
2021/12/31 01:36:53;;;;;;;2.97;1.80;;;;;;;10.82;100.00;100761.19;4995786;28;20212;-72
2021/12/31 01:39:20;;;;;;;4.07;1.70;;;;;;;10.82;100.00;100756.84;5018599;28;20207;-72
2021/12/31 01:41:46;;;;;;;2.73;1.60;;;;;;;10.85;100.00;100766.34;4999931;28;20783;-72
2021/12/31 01:44:12;;;;;;;1.80;1.57;;;;;;;10.88;100.00;100763.66;5003108;28;20205;-72
2021/12/31 01:46:53;;;;;;;1.60;1.30;;;;;;;10.92;100.00;100753.13;4996542;28;20204;-72
2021/12/31 01:49:22;;;;;;;1.43;1.33;;;;;;;11.00;100.00;100758.13;5000781;28;20207;-72
2021/12/31 01:51:50;;;;;;;1.57;1.47;;;;;;;10.96;100.00;100746.06;5000624;28;20230;-72
2021/12/31 01:54:17;;;;;;;3.40;1.63;;;;;;;10.98;100.00;100755.56;5001757;28;20788;-72
2021/12/31 01:56:44;;;;;;;3.07;1.50;;;;;;;11.03;100.00;100760.69;5001687;28;20212;-72
2021/12/31 01:59:13;;;;;;;2.70;1.57;;;;;;;11.06;100.00;100760.56;5000924;28;20212;-72
2021/12/31 02:01:40;;;;;;;5.50;1.40;;;;;;;11.03;100.00;100752.84;4998265;28;20235;-72
2021/12/31 02:04:07;;;;;;;1.40;1.23;;;;;;;11.08;100.00;100756.19;5000425;28;20720;-72
2021/12/31 02:06:33;;;;;;;2.00;1.30;;;;;;;11.06;100.00;100759.72;5000513;28;20339;-72
2021/12/31 02:09:03;;;;;;;1.20;1.10;;;;;;;11.11;100.00;100755.25;5002677;28;20222;-72
2021/12/31 02:11:29;;;;;;;1.33;1.23;;;;;;;11.11;100.00;100760.47;5006673;28;20651;-72
2021/12/31 02:13:56;;;;;;;1.70;1.13;;;;;;;11.08;100.00;100752.72;4999895;28;20432;-72
2021/12/31 02:16:23;;;;;;;1.67;1.23;;;;;;;11.06;100.00;100757.13;5001451;28;20235;-72
2021/12/31 02:18:50;;;;;;;1.80;1.13;;;;;;;11.09;100.00;100757.88;5001219;28;20231;-72
2021/12/31 02:21:20;;;;;;;2.23;1.13;;;;;;;11.13;100.00;100756.94;5000977;28;20374;-72
2021/12/31 02:23:51;;;;;;;3.17;1.53;;;;;;;11.14;100.00;100774.28;4999142;28;20647;-72
2021/12/31 02:26:19;;;;;;;1.67;1.10;;;;;;;11.13;100.00;100762.16;5006619;28;20196;-72
2021/12/31 02:28:45;;;;;;;2.03;1.30;;;;;;;11.12;100.00;100770.88;5000516;28;20197;-72
2021/12/31 02:31:11;;;;;;;1.40;1.13;;;;;;;11.10;100.00;100764.84;5004953;28;20234;-72
2021/12/31 02:33:39;;;;;;;2.67;1.30;;;;;;;11.06;100.00;100770.16;4995168;28;20208;-72
2021/12/31 02:36:07;;;;;;;1.57;1.17;;;;;;;11.05;100.00;100763.25;5001474;28;20227;-72
2021/12/31 02:38:35;;;;;;;1.20;1.10;;;;;;;11.02;100.00;100769.38;4998864;28;20813;-72
2021/12/31 02:41:02;;;;;;;3.30;1.10;;;;;;;10.99;100.00;100761.63;5004170;28;20225;-72
2021/12/31 02:43:29;;;;;;;1.63;1.20;;;;;;;10.98;100.00;100763.38;5000621;28;20812;-72
2021/12/31 02:45:55;;;;;;;1.00;1.00;;;;;;;11.01;100.00;100758.97;5003261;28;20239;-72
2021/12/31 02:48:25;;;;;;;2.30;1.10;;;;;;;11.06;100.00;100760.56;5004011;28;20212;-72
2021/12/31 02:50:53;;;;;;;1.67;1.27;;;;;;;11.06;100.00;100765.78;5003578;28;20290;-72
2021/12/31 02:53:25;;;;;;;2.53;0.90;;;;;;;11.06;100.00;100757.97;5004284;28;20208;-72
2021/12/31 02:56:00;;;;;;;1.20;1.00;;;;;;;11.01;100.00;100752.03;5008229;28;20204;-72
2021/12/31 02:58:27;;;;;;;2.20;1.10;;;;;;;11.01;100.00;100752.03;5002485;28;20207;-72
2021/12/31 03:00:53;;;;;;;1.43;1.10;;;;;;;11.06;100.00;100760.56;5003954;28;20733;-72
2021/12/31 03:03:20;;;;;;;2.30;1.30;;;;;;;11.06;100.00;100749.28;5006824;28;20217;-72
2021/12/31 03:05:48;;;;;;;1.43;1.30;;;;;;;11.08;100.00;100758.81;5005679;28;20255;-72
2021/12/31 03:08:17;;;;;;;2.37;1.17;;;;;;;11.16;100.00;100758.59;5004931;28;20211;-72
2021/12/31 03:10:45;;;;;;;3.50;1.10;;;;;;;11.25;100.00;100770.53;5006046;28;20219;-72
2021/12/31 03:13:14;;;;;;;1.40;1.10;;;;;;;11.27;100.00;100768.75;5002350;28;20598;-72
2021/12/31 03:15:42;;;;;;;1.20;1.10;;;;;;;11.27;100.00;100763.53;5003789;28;20737;-73
2021/12/31 03:18:10;;;;;;;1.40;1.00;;;;;;;11.25;100.00;100765.31;5003997;28;20201;-73
2021/12/31 03:20:38;;;;;;;1.17;1.07;;;;;;;11.23;100.00;100761.91;5003435;28;20207;-73
2021/12/31 03:23:06;;;;;;;1.67;1.13;;;;;;;11.21;100.00;100764.56;5003678;28;20310;-73
2021/12/31 03:25:32;;;;;;;1.13;1.00;;;;;;;11.20;100.00;100764.59;5008339;28;20197;-73
2021/12/31 03:27:59;;;;;;;1.10;1.00;;;;;;;11.16;100.00;100761.19;5006150;28;20208;-73
2021/12/31 03:30:27;;;;;;;1.87;1.17;;;;;;;11.13;100.00;100759.53;4999951;28;20704;-73
2021/12/31 03:32:54;;;;;;;3.10;1.00;;;;;;;11.09;100.00;100760.50;5020211;28;20257;-73
2021/12/31 03:35:21;;;;;;;2.57;1.07;;;;;;;11.09;100.00;100759.66;5001201;28;20228;-73
2021/12/31 03:37:48;;;;;;;3.37;1.20;;;;;;;11.10;100.00;100759.63;4998479;28;20671;-73
2021/12/31 03:40:15;;;;;;;2.60;1.10;;;;;;;11.13;100.00;100758.66;5004165;28;20213;-73
2021/12/31 03:42:42;;;;;;;1.23;1.03;;;;;;;11.11;100.00;100756.09;5006071;28;20228;-73
2021/12/31 03:45:10;;;;;;;1.90;1.10;;;;;;;11.12;100.00;100756.97;5004112;28;20282;-73
2021/12/31 03:47:38;;;;;;;1.20;1.10;;;;;;;11.08;100.00;100765.75;4999921;28;20212;-73
2021/12/31 03:50:05;;;;;;;2.93;1.17;;;;;;;11.08;100.00;100752.72;5003732;28;20218;-73
2021/12/31 03:52:32;;;;;;;1.00;0.90;;;;;;;11.05;100.00;100769.31;5004546;28;20238;-72
2021/12/31 03:54:58;;;;;;;1.30;1.10;;;;;;;11.10;100.00;100764.84;5004280;28;20207;-73
2021/12/31 03:57:25;;;;;;;1.10;1.00;;;;;;;11.09;100.00;100764.88;5006255;28;20204;-73
2021/12/31 03:59:51;;;;;;;1.30;0.90;;;;;;;11.11;100.00;100758.69;5001913;28;20663;-73
2021/12/31 04:02:17;;;;;;;1.27;1.17;;;;;;;11.21;100.00;100761.09;5007175;28;20273;-73
2021/12/31 04:04:45;;;;;;;1.33;1.13;;;;;;;11.19;100.00;100766.34;5004067;28;20214;-73
2021/12/31 04:07:11;;;;;;;1.57;1.00;;;;;;;11.19;100.00;100776.78;5005277;28;20244;-73
2021/12/31 04:09:38;;;;;;;1.10;1.00;;;;;;;11.21;100.00;100763.69;5002064;28;20222;-73
2021/12/31 04:12:05;;;;;;;0.90;0.90;;;;;;;11.13;100.00;100769.97;5004646;28;20223;-73
2021/12/31 04:14:32;;;;;;;1.73;1.20;;;;;;;11.11;100.00;100769.13;5002213;28;20666;-73
2021/12/31 04:16:58;;;;;;;1.50;1.20;;;;;;;11.11;100.00;100763.06;5005011;28;20218;-72
2021/12/31 04:19:25;;;;;;;1.13;1.03;;;;;;;11.14;100.00;100763.84;5003646;28;20201;-73
2021/12/31 04:21:52;;;;;;;1.57;1.20;;;;;;;11.12;100.00;100770.88;5000071;28;20896;-72
2021/12/31 04:24:30;;;;;;;1.97;1.23;;;;;;;11.09;100.00;100770.09;5005802;28;20227;-74
2021/12/31 04:26:57;;;;;;;2.23;1.10;;;;;;;11.08;100.00;100764.03;5005664;28;20745;-72
2021/12/31 04:29:23;;;;;;;1.67;1.00;;;;;;;11.06;100.00;100768.41;5000841;28;20213;-74
2021/12/31 04:31:49;;;;;;;1.33;0.90;;;;;;;11.02;100.00;100776.38;5002112;28;20235;-72
2021/12/31 04:34:16;;;;;;;2.17;0.93;;;;;;;11.03;100.00;100778.94;5005154;28;20212;-72
2021/12/31 04:36:42;;;;;;;0.80;0.80;;;;;;;11.06;100.00;100775.38;5002042;28;20830;-72
2021/12/31 04:39:10;;;;;;;1.83;1.13;;;;;;;11.04;100.00;100769.34;5005483;28;20294;-71
2021/12/31 04:41:36;;;;;;;0.90;0.90;;;;;;;10.92;100.00;100763.56;4999821;28;20227;-72
2021/12/31 04:44:03;;;;;;;0.73;0.73;;;;;;;10.80;100.00;100769.94;5004426;28;20200;-72
2021/12/31 04:46:29;;;;;;;1.10;1.00;;;;;;;10.68;100.00;100756.34;4998364;28;20222;-74
2021/12/31 04:48:55;;;;;;;1.47;1.00;;;;;;;10.69;100.00;100760.66;5005025;28;20467;-73
2021/12/31 04:51:22;;;;;;;1.13;1.03;;;;;;;10.63;100.00;100753.84;5001376;28;20226;-74
2021/12/31 04:53:48;;;;;;;1.53;1.00;;;;;;;10.55;100.00;100764.47;5004459;28;20197;-74
2021/12/31 04:56:16;;;;;;;2.93;1.00;;;;;;;10.55;100.00;100766.19;5000109;28;20215;-74
2021/12/31 04:58:42;;;;;;;2.60;1.40;;;;;;;10.54;100.00;100767.09;5003305;28;20218;-74
2021/12/31 05:01:09;;;;;;;1.63;1.10;;;;;;;10.55;100.00;100771.41;5001743;28;20239;-74
2021/12/31 05:03:35;;;;;;;2.03;1.10;;;;;;;10.53;100.00;100771.44;5000283;28;20235;-72
2021/12/31 05:06:02;;;;;;;1.40;1.00;;;;;;;10.56;100.00;100765.31;4998666;28;20642;-74
2021/12/31 05:08:28;;;;;;;1.13;1.03;;;;;;;10.58;100.00;100771.34;5004365;28;20551;-74
2021/12/31 05:10:55;;;;;;;1.20;1.10;;;;;;;10.61;100.00;100755.63;5003171;28;20238;-72
2021/12/31 05:13:22;;;;;;;1.60;1.20;;;;;;;10.63;100.00;100760.81;5004371;28;20219;-72
2021/12/31 05:15:51;;;;;;;1.10;1.07;;;;;;;10.60;100.00;100759.97;5003317;28;20219;-72
2021/12/31 05:18:18;;;;;;;1.17;1.07;;;;;;;10.60;100.00;100759.13;5002637;28;20203;-71
2021/12/31 05:20:44;;;;;;;2.20;1.20;;;;;;;10.60;100.00;100766.94;4999762;28;20481;-74
2021/12/31 05:23:11;;;;;;;1.43;1.03;;;;;;;10.55;100.00;100772.28;5004252;28;20210;-72
2021/12/31 05:25:37;;;;;;;3.23;0.87;;;;;;;10.52;100.00;100769.75;5004208;28;20214;-72
2021/12/31 05:28:04;;;;;;;1.60;1.10;;;;;;;10.55;100.00;100771.41;5001457;28;20203;-72
2021/12/31 05:30:32;;;;;;;1.10;0.90;;;;;;;10.50;100.00;100766.31;5001889;28;20216;-72
2021/12/31 05:32:58;;;;;;;1.57;0.80;;;;;;;10.45;100.00;100762.09;5002905;28;20437;-72
2021/12/31 05:35:25;;;;;;;1.30;1.20;;;;;;;10.46;100.00;100761.19;5003669;28;20219;-73
2021/12/31 05:37:51;;;;;;;1.07;0.97;;;;;;;10.43;100.00;100775.19;4998526;28;20203;-73
2021/12/31 05:40:18;;;;;;;0.80;0.80;;;;;;;10.47;100.00;100765.53;5003338;28;20207;-73
2021/12/31 05:42:44;;;;;;;1.37;1.00;;;;;;;10.45;100.00;100775.13;5000601;28;20228;-73
2021/12/31 05:45:11;;;;;;;1.93;1.00;;;;;;;10.47;100.00;100760.31;4998540;28;20692;-73
2021/12/31 05:47:39;;;;;;;1.43;1.13;;;;;;;10.42;100.00;100761.25;5000452;28;20211;-73
2021/12/31 05:50:09;;;;;;;2.97;1.10;;;;;;;10.46;100.00;100763.81;5003799;28;20210;-73
2021/12/31 05:52:36;;;;;;;2.23;0.90;;;;;;;10.44;100.00;100774.28;4996501;28;20236;-73
2021/12/31 05:55:05;;;;;;;0.80;0.80;;;;;;;10.45;100.00;100769.91;5005688;28;20209;-73
2021/12/31 05:57:31;;;;;;;1.80;1.03;;;;;;;10.42;100.00;100770.84;5000046;28;20216;-73
2021/12/31 05:59:57;;;;;;;0.93;0.80;;;;;;;10.40;100.00;100776.09;4998389;28;20206;-73
2021/12/31 06:02:24;;;;;;;1.90;0.77;;;;;;;10.41;100.00;100780.44;5001174;28;20229;-73
2021/12/31 06:04:51;;;;;;;1.83;1.03;;;;;;;10.41;100.00;100779.53;5003841;28;20219;-73
2021/12/31 06:07:18;;;;;;;1.20;0.90;;;;;;;10.42;100.00;100786.47;5002076;28;20225;-73
2021/12/31 06:09:44;;;;;;;0.80;0.80;;;;;;;10.41;100.00;100790.84;5001583;28;20198;-73
2021/12/31 06:12:10;;;;;;;1.17;0.93;;;;;;;10.41;100.00;100789.97;5000678;28;20238;-73
2021/12/31 06:14:38;;;;;;;0.87;0.87;;;;;;;10.39;100.00;100776.13;4999336;28;20207;-73
2021/12/31 06:17:07;;;;;;;1.30;1.10;;;;;;;10.44;100.00;100786.47;4996940;28;20204;-73
2021/12/31 06:19:34;;;;;;;2.23;1.03;;;;;;;10.41;100.00;100798.66;5002013;28;20226;-73
2021/12/31 06:22:02;;;;;;;2.30;0.97;;;;;;;10.42;100.00;100797.75;4992439;28;20654;-72
2021/12/31 06:24:28;;;;;;;1.20;1.10;;;;;;;10.37;100.00;100789.19;5008813;28;20661;-73
2021/12/31 06:26:55;;;;;;;3.30;1.07;;;;;;;10.40;100.00;100790.88;4998668;28;20300;-73
2021/12/31 06:29:21;;;;;;;2.10;1.07;;;;;;;10.38;100.00;100795.28;5001177;28;20210;-73
2021/12/31 06:31:48;;;;;;;3.03;1.13;;;;;;;10.42;100.00;100795.16;5003645;28;20227;-73
2021/12/31 06:34:14;;;;;;;1.17;0.90;;;;;;;10.42;100.00;100789.09;4999180;28;20244;-73
2021/12/31 06:36:41;;;;;;;1.73;0.97;;;;;;;10.42;100.00;100792.53;5000601;28;20207;-73
2021/12/31 06:39:08;;;;;;;1.67;1.10;;;;;;;10.48;100.00;100788.94;4998968;28;20214;-73
2021/12/31 06:41:35;;;;;;;3.27;1.30;;;;;;;10.50;100.00;100799.34;5000505;28;20223;-73
2021/12/31 06:44:01;;;;;;;2.33;1.13;;;;;;;10.47;100.00;100797.66;5001246;28;20203;-73
2021/12/31 06:46:28;;;;;;;2.57;1.00;;;;;;;10.44;100.00;100799.50;5004161;28;20197;-73
2021/12/31 06:48:54;;;;;;;1.20;1.10;;;;;;;10.43;100.00;100801.25;4998134;28;20211;-73
2021/12/31 06:51:20;;;;;;;2.47;1.00;;;;;;;10.42;100.00;100799.53;5004876;28;20223;-73
2021/12/31 06:53:47;;;;;;;1.47;1.10;;;;;;;10.44;100.00;100802.09;4997946;28;20222;-73
2021/12/31 06:56:14;;;;;;;1.73;1.00;;;;;;;10.47;100.00;100802.03;5005050;28;20202;-73
2021/12/31 06:58:41;;;;;;;1.03;1.00;;;;;;;10.42;100.00;100797.75;4996747;28;20218;-73
2021/12/31 07:01:07;;;;;;;2.77;1.00;;;;;;;10.50;100.00;100804.53;5002740;28;20257;-73
2021/12/31 07:03:34;;;;;;;1.10;1.00;;;;;;;10.49;100.00;100810.66;4998273;28;20215;-72
2021/12/31 07:06:00;;;;;;;2.00;1.10;;;;;;;10.45;100.00;100812.50;4997107;28;20203;-73
2021/12/31 07:08:26;;;;;;;2.50;1.20;;;;;;;10.47;100.00;100809.84;4997540;28;20227;-73
2021/12/31 07:10:53;;;;;;;1.27;1.10;;;;;;;10.49;100.00;100814.13;5003123;28;20247;-73
2021/12/31 07:13:21;;;;;;;1.67;1.00;;;;;;;10.48;100.00;100817.63;4998290;28;20219;-73
2021/12/31 07:15:50;;;;;;;1.83;1.00;;;;;;;10.48;100.00;100814.16;5002855;28;20210;-73
2021/12/31 07:18:17;;;;;;;1.30;1.20;;;;;;;10.49;100.00;100813.28;5000402;28;20222;-73
2021/12/31 07:20:44;;;;;;;1.93;1.23;;;;;;;10.45;100.00;100820.31;4999920;28;20203;-73
2021/12/31 07:23:13;;;;;;;1.20;0.90;;;;;;;10.44;100.00;100815.97;4998922;28;20210;-73
2021/12/31 07:25:40;;;;;;;1.23;1.13;;;;;;;10.48;100.00;100816.75;5001839;28;20211;-73
2021/12/31 07:28:07;;;;;;;1.53;1.20;;;;;;;10.51;100.00;100814.09;5002222;28;20216;-73
2021/12/31 07:30:35;;;;;;;1.70;1.20;;;;;;;10.53;100.00;100817.53;4999384;28;20253;-73
2021/12/31 07:33:02;;;;;;;2.40;1.30;;;;;;;10.50;100.00;100820.19;5003373;28;20579;-73
2021/12/31 07:35:29;;;;;;;2.37;1.30;;;;;;;10.55;100.00;100826.16;5006391;28;20230;-73
2021/12/31 07:37:56;;;;;;;1.53;1.00;;;;;;;10.57;100.00;100822.63;5002667;28;20207;-73
2021/12/31 07:40:27;;;;;;;1.87;1.20;;;;;;;10.60;100.00;100824.31;5001520;28;20287;-73
2021/12/31 07:42:53;;;;;;;3.83;1.10;;;;;;;10.64;100.00;100827.69;5002197;28;20215;-73
2021/12/31 07:45:20;;;;;;;2.43;1.40;;;;;;;10.65;100.00;100826.81;5004831;28;20294;-73
2021/12/31 07:47:48;;;;;;;1.57;1.00;;;;;;;10.68;100.00;100829.34;5007374;28;20204;-73
2021/12/31 07:50:15;;;;;;;1.67;0.90;;;;;;;10.68;100.00;100822.38;5005817;28;20206;-73
2021/12/31 07:52:41;;;;;;;1.33;1.10;;;;;;;10.76;100.00;100835.22;5006417;28;20224;-73
2021/12/31 07:55:08;;;;;;;0.90;0.90;;;;;;;10.71;100.00;100827.53;5004639;28;21022;-73
2021/12/31 07:57:35;;;;;;;1.20;1.10;;;;;;;10.75;100.00;100837.00;4999276;28;20198;-73
2021/12/31 08:00:01;;;;;;;1.60;1.00;;;;;;;10.75;100.00;100834.38;5004345;28;20214;-73
2021/12/31 08:02:38;;;;;;;1.37;1.07;;;;;;;10.79;100.00;100832.56;5002870;28;20358;-73
2021/12/31 08:05:06;;;;;;;1.47;1.10;;;;;;;10.83;100.00;100838.56;5004017;28;20210;-73
2021/12/31 08:07:33;;;;;;;2.00;0.90;;;;;;;10.81;100.00;100828.16;5008452;28;20202;-73
2021/12/31 08:09:59;;;;;;;1.27;1.10;;;;;;;10.79;100.00;100832.56;5003675;28;20696;-73
2021/12/31 08:12:26;;;;;;;2.70;1.10;;;;;;;10.80;100.00;100823.84;5007046;28;20802;-73
2021/12/31 08:14:52;;;;;;;1.10;1.00;;;;;;;10.80;100.00;100822.09;5001945;28;20212;-73
2021/12/31 08:17:18;;;;;;;2.50;0.90;;;;;;;10.85;100.00;100829.78;5006605;28;20203;-73
2021/12/31 08:19:45;;;;;;;1.63;0.80;;;;;;;10.90;100.00;100816.66;5004999;28;20207;-73
2021/12/31 08:22:12;;;;;;;2.57;1.00;;;;;;;11.00;100.00;100815.53;5005097;28;20716;-73
2021/12/31 08:24:39;;;;;;;2.40;1.10;;;;;;;11.10;100.00;100829.19;5006108;28;21064;-73
2021/12/31 08:27:05;;;;;;;1.23;1.13;;;;;;;11.14;100.00;100831.69;5005151;28;20699;-73
2021/12/31 08:29:32;;;;;;;1.43;1.10;;;;;;;11.17;100.00;100826.41;5005980;28;20228;-73
2021/12/31 08:31:58;;;;;;;1.37;1.00;;;;;;;11.21;100.00;100832.41;5004202;28;20639;-73
2021/12/31 08:34:24;;;;;;;2.40;1.10;;;;;;;11.30;100.00;100837.38;5005115;28;20226;-73
2021/12/31 08:36:51;;;;;;;1.00;0.87;;;;;;;11.33;100.00;100834.69;5001230;28;20207;-73
2021/12/31 08:39:19;;;;;;;1.13;0.97;;;;;;;11.45;100.00;100832.66;5011406;28;20216;-73
2021/12/31 08:41:45;;;;;;;0.80;0.80;;;;;;;11.49;100.00;100831.69;5002300;28;20236;-73
2021/12/31 08:44:11;;;;;;;3.37;1.03;;;;;;;11.51;100.00;100829.88;5003038;28;20197;-73
2021/12/31 08:46:38;;;;;;;0.90;0.90;;;;;;;11.59;100.00;100827.06;5001867;28;20204;-73
2021/12/31 08:49:04;;;;;;;1.00;0.90;;;;;;;11.62;100.00;100832.22;5005082;28;20213;-73
2021/12/31 08:51:31;;;;;;;2.23;1.03;;;;;;;11.63;100.00;100832.16;4999056;28;20228;-73
2021/12/31 08:53:57;;;;;;;2.50;1.30;;;;;;;11.60;100.00;100826.19;5000311;28;20213;-73
2021/12/31 08:56:25;;;;;;;2.87;1.13;;;;;;;11.58;100.00;100836.66;4999843;28;20220;-73
2021/12/31 08:58:51;;;;;;;1.87;1.10;;;;;;;11.59;100.00;100833.16;5002392;28;20242;-73
2021/12/31 09:01:18;;;;;;;1.20;1.10;;;;;;;11.61;100.00;100836.59;4999907;28;20232;-73
2021/12/31 09:03:45;;;;;;;4.10;1.33;;;;;;;11.55;100.00;100834.13;5001980;28;20207;-73
2021/12/31 09:06:12;;;;;;;2.07;1.10;;;;;;;11.52;100.00;100823.75;5003195;28;20222;-73
2021/12/31 09:08:39;;;;;;;1.70;1.20;;;;;;;11.54;100.00;100835.88;5001359;28;20212;-73
2021/12/31 09:11:05;;;;;;;2.40;1.50;;;;;;;11.53;100.00;100839.38;5001122;28;20236;-73
2021/12/31 09:13:33;;;;;;;2.13;1.20;;;;;;;11.53;100.00;100841.16;4995823;28;20234;-73
2021/12/31 09:15:59;;;;;;;1.47;1.00;;;;;;;11.55;100.00;100839.34;4998171;28;20198;-73
2021/12/31 09:18:25;;;;;;;1.50;1.10;;;;;;;11.58;100.00;100838.44;5003564;28;20617;-73
2021/12/31 09:20:53;;;;;;;1.70;1.10;;;;;;;11.57;100.00;100842.78;4998007;28;20599;-73
2021/12/31 09:23:20;;;;;;;1.23;1.00;;;;;;;11.56;100.00;100844.53;4998941;28;20201;-73
2021/12/31 09:25:46;;;;;;;1.10;0.97;;;;;;;11.53;100.00;100847.22;5000701;28;20205;-73
2021/12/31 09:28:13;;;;;;;3.00;0.90;;;;;;;11.51;100.00;100846.41;4999287;28;20203;-73
2021/12/31 09:30:40;;;;;;;1.33;0.80;;;;;;;11.50;100.00;100825.56;5000072;28;20203;-73
2021/12/31 09:33:07;;;;;;;1.10;1.00;;;;;;;11.48;100.00;100827.34;5002728;28;20220;-73
2021/12/31 09:35:33;;;;;;;1.07;0.83;;;;;;;11.54;100.00;100828.06;5005484;28;20658;-73
2021/12/31 09:38:00;;;;;;;1.07;0.90;;;;;;;11.56;100.00;100818.41;5006196;28;20204;-73
2021/12/31 09:40:27;;;;;;;0.83;0.83;;;;;;;11.59;100.00;100820.09;5003366;28;20212;-73
2021/12/31 09:43:02;;;;;;;1.30;1.00;;;;;;;11.61;100.00;100833.97;5000284;28;20200;-73
2021/12/31 09:45:28;;;;;;;2.83;1.03;;;;;;;11.61;100.00;100835.72;5003512;28;20614;-73
2021/12/31 09:47:59;;;;;;;0.80;0.80;;;;;;;11.60;100.00;100834.00;5002979;28;20206;-73
2021/12/31 09:50:26;;;;;;;1.87;0.87;;;;;;;11.63;100.00;100834.78;5005921;28;20216;-73
2021/12/31 09:52:54;;;;;;;0.87;0.87;;;;;;;11.65;100.00;100832.13;4999390;28;20893;-73
2021/12/31 09:55:35;;;;;;;3.10;2.20;;;;;;;11.67;100.00;100833.78;4999122;28;20193;-73
2021/12/31 09:58:01;;;;;;;1.87;1.20;;;;;;;11.75;100.00;100831.84;4999374;28;20218;-73
2021/12/31 10:00:28;;;;;;;2.70;1.30;;;;;;;11.80;100.00;100823.00;5004057;28;20216;-73
2021/12/31 10:03:11;;;;;;;1.10;1.00;;;;;;;11.81;100.00;100809.91;4996712;28;20211;-73
2021/12/31 10:05:41;;;;;;;1.10;0.97;;;;;;;11.87;100.00;100801.91;4999178;28;20895;-73
2021/12/31 10:08:16;;;;;;;1.67;0.90;;;;;;;11.87;100.00;100808.88;5000434;28;20206;-73
2021/12/31 10:10:43;;;;;;;0.97;0.87;;;;;;;11.90;100.00;100800.94;5001938;28;20568;-73
2021/12/31 10:13:10;;;;;;;0.80;0.80;;;;;;;11.90;100.00;100801.81;5001194;28;20223;-73
2021/12/31 10:15:41;;;;;;;0.80;0.80;;;;;;;11.93;100.00;100806.13;5002581;28;20211;-73
2021/12/31 10:18:13;;;;;;;1.40;1.07;;;;;;;11.96;100.00;100799.94;4998778;28;20232;-73
2021/12/31 10:20:50;;;;;;;1.77;0.90;;;;;;;11.93;100.00;100798.28;5001991;28;20208;-73
2021/12/31 10:23:19;;;;;;;1.93;1.10;;;;;;;11.97;100.00;100802.50;5000905;28;20192;-73
2021/12/31 10:25:45;;;;;;;3.37;2.50;;;;;;;11.95;100.00;100811.31;5002287;28;20200;-73
2021/12/31 10:28:14;;;;;;;2.93;2.20;;;;;;;11.92;100.00;100800.06;4999770;28;20205;-73
2021/12/31 10:30:40;;;;;;;2.03;1.60;;;;;;;11.96;100.00;100792.09;5002866;28;20219;-73
2021/12/31 10:33:08;;;;;;;2.77;1.40;;;;;;;11.93;100.00;100793.06;4999823;28;20217;-73
2021/12/31 10:35:41;;;;;;;1.80;1.70;;;;;;;11.96;100.00;100789.50;5003902;28;20235;-73
2021/12/31 10:38:11;;;;;;;1.27;1.17;;;;;;;12.03;100.00;100797.13;5001194;28;20200;-73
2021/12/31 10:40:40;;;;;;;1.63;1.13;;;;;;;12.07;100.00;100797.88;5002894;28;20293;-73
2021/12/31 10:43:11;;;;;;;2.60;1.00;;;;;;;12.09;100.00;100801.31;4996494;28;20259;-73
2021/12/31 10:45:39;;;;;;;1.83;1.10;;;;;;;12.10;100.00;100787.31;4998598;28;20546;-72
2021/12/31 10:48:07;;;;;;;1.33;0.97;;;;;;;12.13;100.00;100798.53;4998319;28;20200;-73
2021/12/31 10:50:35;;;;;;;1.73;0.90;;;;;;;12.14;100.00;100791.56;5000807;28;20235;-73
2021/12/31 10:53:09;;;;;;;3.50;0.90;;;;;;;12.10;100.00;100797.78;4997360;28;20209;-73
2021/12/31 10:55:39;;;;;;;3.27;1.10;;;;;;;12.07;100.00;100808.34;5009088;28;20645;-73
2021/12/31 10:58:07;;;;;;;1.30;0.90;;;;;;;12.04;100.00;100785.75;4997698;28;20201;-73
2021/12/31 11:00:36;;;;;;;1.07;0.90;;;;;;;12.01;100.00;100803.28;5002126;28;20201;-73
2021/12/31 11:03:03;;;;;;;1.37;1.00;;;;;;;12.01;100.00;100796.28;5000311;28;20218;-73
2021/12/31 11:05:29;;;;;;;3.67;1.27;;;;;;;11.97;100.00;100793.81;5001709;28;20617;-73
2021/12/31 11:07:59;;;;;;;1.17;1.07;;;;;;;11.95;100.00;100788.63;5001704;28;20212;-73
2021/12/31 11:10:29;;;;;;;1.53;1.10;;;;;;;11.96;100.00;100787.75;5004887;28;20670;-73
2021/12/31 11:12:56;;;;;;;1.30;1.20;;;;;;;11.97;100.00;100776.38;5003108;28;20211;-73
2021/12/31 11:15:22;;;;;;;1.43;1.03;;;;;;;11.99;100.00;100781.56;5005230;28;20205;-73
2021/12/31 11:17:52;;;;;;;1.10;1.00;;;;;;;12.02;100.00;100776.25;5005627;28;20220;-73